Hlavní strana
METAR-TAF:

METAR-TAF

Letiště :

El Bayadh, Alžírsko

zeměpisná šířka: 33-43-15N, zeměpisná délka: 1-05-29E, výška: 1366 m

Aktuální stav počasí

Zpráva byla vytvořena před 1 hodinou a 25 minutami, v 09:00 UTC
Severoseverozápadní vítr 4 kt
Teplota 5°C
Vlhkost vzduchu 93%
Tlak 1027 hPa
Viditelnost 10 km a více
Oblačno až skoro zataženo ve výšce 1600 ft

METAR: DAOY 100900Z 34004KT 9999 BKN016 05/04 Q1027

Čas: 11:25 (10:25 UTC)

Předpověď počasí

Zpráva byla vytvořena před 23 hodinami a 25 minutami, v 11:00 UTC
Předpověď platná od 09 v 12 UTC do 09 v 21 UTC
Severoseverozápadní vítr 18 kt
Viditelnost: 9000 m
Skoro jasno ve výšce 1000 ft
Dočasný
od 09 v 19 UTC do 09 v 21 UTC
Viditelnost: 4000 m
Oblačno až skoro zataženo ve výšce 1000 ft
kouřmo

TAF: DAOY 091100Z 0912/0921 34018KT 9000 FEW010 TEMPO 0919/0921 4000 BR BKN010

Stav a předpovědi počasí z více než 4 000 letišť (zprávy METAR a TAF).

Červené a žluté tečky na mapě představují dostupné meteorologické stanice.

Když kurzor umístíte na tečku, zobrazí se název stanice.

Pak kliknutím zobrazíte stav a předpověď počasí.

Chcete-li změnit mapu, kliknutím na zelené tlačítko se znaménkem +mapu přiblížíte, kliknutím na zelené tlačítko se znaménkem – mapu oddálíte a kliknutím na zelené šipky přejdete na sousední mapy.


METAR-TAF: